Flight Track Log - Related Links

Times and Time Zones

All times are in EDT time to prevent confusion due to time zone crossing. See the SWA4021 flight status page for this flight to view local times or setup timezone preferences in your user account.

Time Position Orientation Groundspeed Altitude Reporting Facility
EDT Latitude Longitude Course Direction KTS MPH feet Rate Location/Type
Sun 01:14:15 PM 39.2225 -94.7839 213° Southwest 224 258 4,500  Level Kansas City Center
Sun 01:15:16 PM 39.1689 -94.8628 229° Southwest 273 314 7,500 2,832 Climbing Kansas City Center
Sun 01:16:20 PM 39.1678 -94.9597 269° West 279 321 10,400 1,887 Climbing Kansas City Center
Sun 01:17:20 PM 39.1653 -95.0717 268° West 332 382 11,400 2,098 Climbing Kansas City Center
Sun 01:18:23 PM 39.1631 -95.2150 269° West 344 396 14,700 2,544 Climbing Kansas City Center
Sun 01:19:25 PM 39.1600 -95.3422 268° West 357 411 16,700 1,728 Climbing Kansas City Center
Sun 01:20:28 PM 39.1578 -95.4633 269° West 362 417 18,300 1,742 Climbing Kansas City Center
Sun 01:21:29 PM 39.1547 -95.6156 269° West 377 434 20,300 1,574 Climbing Kansas City Center
Sun 01:22:30 PM 39.1508 -95.7486 268° West 386 444 21,500 1,355 Climbing Kansas City Center
Sun 01:23:33 PM 39.1464 -95.9125 268° West 407 468 23,100 1,403 Climbing Kansas City Center
Sun 01:24:34 PM 39.1339 -96.0536 264° West 412 474 24,400 1,210 Climbing Kansas City Center
Sun 01:25:37 PM 39.1114 -96.2217 260° West 423 487 25,600 1,200 Climbing Kansas City Center
Sun 01:26:39 PM 39.0928 -96.3681 261° West 432 497 26,900 1,476 Climbing Kansas City Center
Sun 01:27:43 PM 39.0708 -96.5378 261° West 431 496 28,700 1,500 Climbing Kansas City Center
Sun 01:28:43 PM 39.0503 -96.6789 259° West 423 487 30,000 1,317 Climbing Kansas City Center
Sun 01:29:46 PM 39.0286 -96.8439 260° West 420 483 31,400 1,317 Climbing Kansas City Center
Sun 01:30:46 PM 39.0122 -96.9781 261° West 406 467 32,700 960 Climbing Kansas City Center
Sun 01:31:51 PM 38.9881 -97.1339 259° West 399 459 33,400 619 Climbing Kansas City Center
Sun 01:32:52 PM 38.9539 -97.2606 251° West 407 468 34,000 298 Climbing Kansas City Center
Sun 01:33:52 PM 38.9181 -97.3906 251° West 392 451 34,000 -488 Level Kansas City Center
Sun 01:34:55 PM 38.9153 -97.5411 269° West 383 441 33,000 -919 Descending Kansas City Center
Sun 01:35:56 PM 38.9258 -97.6786 276° West 396 456 32,100 -480 Descending Kansas City Center
Sun 01:37:00 PM 38.9328 -97.8453 273° West 418 481 32,000 -48 Descending Kansas City Center
Sun 01:38:00 PM 38.8903 -97.9794 248° West 408 470 32,000  Level Kansas City Center
Sun 01:39:04 PM 38.8522 -98.1150 250° West 406 467 32,000  Level Kansas City Center
Sun 01:40:06 PM 38.8136 -98.2483 250° West 402 463 32,000  Level Kansas City Center
Sun 01:41:09 PM 38.7744 -98.3825 250° West 403 464 32,000  Level Kansas City Center
Sun 01:42:10 PM 38.7269 -98.5425 249° West 403 464 32,000  Level Kansas City Center
Sun 01:43:12 PM 38.6867 -98.6814 250° West 405 466 32,000  Level Kansas City Center
Sun 01:44:13 PM 38.6486 -98.8114 249° West 403 464 32,000 480 Level Kansas City Center
Sun 01:45:17 PM 38.6081 -98.9442 249° West 402 463 33,000 952 Climbing Kansas City Center
Sun 01:46:19 PM 38.5697 -99.0728 249° West 394 453 34,000 492 Climbing Kansas City Center
Sun 01:47:19 PM 38.5314 -99.1981 249° West 384 442 34,000  Level Kansas City Center
Sun 01:48:21 PM 38.4794 -99.3494 246° West 386 444 34,000  Level Kansas City Center
Sun 01:49:23 PM 38.4394 -99.4733 248° West 382 440 34,000  Level Kansas City Center
Sun 01:50:26 PM 38.3972 -99.6019 247° West 380 437 34,000  Level Kansas City Center
Sun 01:51:29 PM 38.3517 -99.7400 247° West 380 437 34,000  Level Kansas City Center
Sun 01:52:31 PM 38.3136 -99.8583 248° West 379 436 34,000  Level Kansas City Center
Sun 01:53:32 PM 38.2669 -99.9950 247° West 377 434 34,000  Level Kansas City Center
Sun 01:54:33 PM 38.2283 -100.1108 247° West 375 432 34,000  Level Kansas City Center
Sun 01:55:37 PM 38.1883 -100.2281 247° West 376 433 34,000  Level Kansas City Center
Sun 01:56:38 PM 38.1428 -100.3633 247° West 375 432 34,000  Level Kansas City Center
Sun 01:57:41 PM 38.1031 -100.4800 247° West 376 433 34,000  Level Kansas City Center
Sun 01:58:43 PM 38.0569 -100.6156 247° West 376 433 34,000  Level Kansas City Center
Sun 01:59:45 PM 38.0122 -100.7500 247° West 374 430 34,000  Level Kansas City Center
Sun 02:00:49 PM 37.9711 -100.8658 246° West 377 434 34,000  Level Kansas City Center
Sun 02:01:49 PM 37.9247 -101.0011 247° West 378 435 34,000  Level Kansas City Center
Sun 02:02:50 PM 37.8847 -101.1161 246° West 377 434 34,000  Level Kansas City Center
Sun 02:03:54 PM 37.8375 -101.2497 246° West 376 433 34,000  Level Kansas City Center
Sun 02:04:54 PM 37.7975 -101.3644 246° West 375 432 34,000  Level Kansas City Center
Sun 02:05:59 PM 37.7500 -101.4981 246° West 375 432 34,000  Level Kansas City Center
Sun 02:07:00 PM 37.7097 -101.6119 246° West 374 430 34,000  Level Kansas City Center
Sun 02:08:02 PM 37.6628 -101.7458 246° West 374 430 34,000  Level Kansas City Center
Sun 02:09:03 PM 37.6219 -101.8600 246° West 374 430 34,000  Level Kansas City Center
Sun 02:10:06 PM 37.5739 -101.9922 245° Southwest 373 429 34,000  Level Kansas City Center
Sun 02:11:09 PM 37.5331 -102.1067 246° West 374 430 34,000  Level Kansas City Center
Sun 02:12:09 PM 37.4856 -102.2392 246° West 373 429 34,000  Level Kansas City Center
Sun 02:13:13 PM 37.4439 -102.3528 245° Southwest 373 429 34,000  Level Kansas City Center
Sun 02:14:13 PM 37.3956 -102.4847 245° Southwest 373 429 34,000  Level Kansas City Center
Sun 02:15:03 PM 37.3653 -102.5739 247° West 373 429 34,000  Level Albuquerque Center
Sun 02:16:07 PM 37.3236 -102.6875 245° Southwest 373 429 34,000  Level Albuquerque Center
Sun 02:17:07 PM 37.2750 -102.8192 245° Southwest 372 428 34,000  Level Albuquerque Center
Sun 02:18:11 PM 37.2339 -102.9317 245° Southwest 371 427 34,000  Level Albuquerque Center
Sun 02:19:11 PM 37.1853 -103.0628 245° Southwest 371 427 34,000  Level Albuquerque Center
Sun 02:20:15 PM 37.1419 -103.1756 244° Southwest 373 429 34,000  Level Albuquerque Center
Sun 02:22:16 PM 37.0511 -103.4192 245° Southwest 372 428 34,000  Level Albuquerque Center
Sun 02:23:20 PM 37.0019 -103.5481 244° Southwest 368 423 34,000  Level Albuquerque Center
Sun 02:24:21 PM 36.9597 -103.6606 245° Southwest 370 426 34,000  Level Albuquerque Center
Sun 02:25:22 PM 36.9178 -103.7728 245° Southwest 371 427 34,000  Level Albuquerque Center
Sun 02:26:26 PM 36.8692 -103.9017 245° Southwest 367 422 34,000  Level Albuquerque Center
Sun 02:27:26 PM 36.8267 -104.0119 244° Southwest 367 422 34,000  Level Albuquerque Center
Sun 02:28:30 PM 36.7772 -104.1408 244° Southwest 367 422 34,000  Level Albuquerque Center
Sun 02:29:30 PM 36.7339 -104.2503 244° Southwest 367 422 34,000  Level Albuquerque Center
Sun 02:30:31 PM 36.6925 -104.3600 245° Southwest 365 420 34,000  Level Albuquerque Center
Sun 02:31:34 PM 36.6461 -104.4767 244° Southwest 365 420 34,000  Level Albuquerque Center
Sun 02:32:35 PM 36.5936 -104.6108 244° Southwest 366 421 34,000  Level Albuquerque Center
Sun 02:33:39 PM 36.5489 -104.7253 244° Southwest 367 422 34,000  Level Albuquerque Center
Sun 02:34:39 PM 36.5039 -104.8394 244° Southwest 366 421 34,000  Level Albuquerque Center
Sun 02:35:41 PM 36.4622 -104.9572 246° West 368 423 34,000  Level Albuquerque Center
Sun 02:36:42 PM 36.4244 -105.0744 248° West 366 421 34,000  Level Albuquerque Center
Sun 02:37:46 PM 36.3850 -105.1906 247° West 364 419 34,000  Level Albuquerque Center
Sun 02:38:47 PM 36.3439 -105.3106 247° West 371 427 34,000  Level Albuquerque Center
Sun 02:39:47 PM 36.3044 -105.4261 247° West 366 421 34,000  Level Albuquerque Center
Sun 02:40:51 PM 36.2622 -105.5569 248° West 363 418 34,000  Level Albuquerque Center
Sun 02:41:51 PM 36.2236 -105.6711 247° West 363 418 34,000  Level Albuquerque Center
Sun 02:42:55 PM 36.1847 -105.7856 247° West 361 415 34,000  Level Albuquerque Center
Sun 02:43:55 PM 36.1375 -105.8917 241° Southwest 359 413 34,000  Level Albuquerque Center
Sun 02:44:58 PM 36.0828 -105.9947 237° Southwest 359 413 34,000  Level Albuquerque Center
Sun 02:46:00 PM 36.0192 -106.1161 237° Southwest 355 409 34,000  Level Albuquerque Center
Sun 02:47:01 PM 35.9661 -106.2178 237° Southwest 355 409 34,000  Level Albuquerque Center
Sun 02:48:04 PM 35.9075 -106.3283 237° Southwest 356 410 34,000  Level Albuquerque Center
Sun 02:49:05 PM 35.8531 -106.4281 236° Southwest 353 406 34,000  Level Albuquerque Center
Sun 02:50:06 PM 35.8008 -106.5375 240° Southwest 356 410 34,000  Level Albuquerque Center
Sun 02:51:10 PM 35.7553 -106.6375 241° Southwest 354 407 34,000  Level Albuquerque Center
Sun 02:52:10 PM 35.7022 -106.7542 241° Southwest 349 402 34,000  Level Albuquerque Center
Sun 02:53:14 PM 35.6578 -106.8539 241° Southwest 347 399 34,000  Level Albuquerque Center
Sun 02:54:14 PM 35.6208 -106.9744 249° West 349 402 34,000  Level Albuquerque Center
Sun 02:55:18 PM 35.5856 -107.0925 250° West 344 396 34,000  Level Albuquerque Center
Sun 02:56:18 PM 35.5561 -107.1917 250° West 348 400 34,000  Level Albuquerque Center
Sun 02:57:22 PM 35.5197 -107.3150 250° West 345 397 34,000  Level Albuquerque Center
Sun 02:58:22 PM 35.4881 -107.4194 250° West 343 395 34,000  Level Albuquerque Center
Sun 02:59:24 PM 35.4492 -107.5439 249° West 346 398 34,000  Level Albuquerque Center
Sun 03:00:27 PM 35.4164 -107.6494 249° West 346 398 34,000  Level Albuquerque Center
Sun 03:01:28 PM 35.3789 -107.7733 250° West 347 399 34,000  Level Albuquerque Center
Sun 03:02:31 PM 35.3417 -107.8767 246° West 350 403 34,000  Level Albuquerque Center
Sun 03:03:32 PM 35.2744 -107.9808 232° Southwest 347 399 34,000  Level Albuquerque Center
Sun 03:04:33 PM 35.2144 -108.0689 230° Southwest 348 400 34,000  Level Albuquerque Center
Sun 03:05:37 PM 35.1567 -108.1572 231° Southwest 348 400 34,000  Level Albuquerque Center
Sun 03:06:37 PM 35.0900 -108.2619 232° Southwest 348 400 34,000  Level Albuquerque Center
Sun 03:07:41 PM 35.0361 -108.3522 234° Southwest 345 397 34,000  Level Albuquerque Center
Sun 03:08:41 PM 34.9744 -108.4592 235° Southwest 344 396 34,000  Level Albuquerque Center
Sun 03:09:45 PM 34.9219 -108.5514 235° Southwest 344 396 34,000  Level Albuquerque Center
Sun 03:10:46 PM 34.8714 -108.6706 243° Southwest 349 402 34,000  Level Albuquerque Center
Sun 03:11:46 PM 34.8361 -108.7756 248° West 349 402 34,000  Level Albuquerque Center
Sun 03:12:51 PM 34.8183 -108.9075 261° West 351 404 34,000  Level Albuquerque Center
Sun 03:13:53 PM 34.8047 -109.0231 262° West 356 410 34,000  Level Albuquerque Center
Sun 03:14:54 PM 34.7922 -109.1403 263° West 361 415 34,000  Level Albuquerque Center
Sun 03:15:55 PM 34.7756 -109.2794 262° West 367 422 34,000  Level Albuquerque Center
Sun 03:16:58 PM 34.7628 -109.3975 263° West 367 422 34,000  Level Albuquerque Center
Sun 03:17:58 PM 34.7456 -109.5369 261° West 370 426 34,000  Level Albuquerque Center
Sun 03:19:01 PM 34.7325 -109.6556 262° West 371 427 34,000  Level Albuquerque Center
Sun 03:20:04 PM 34.7158 -109.7939 262° West 370 426 34,000  Level Albuquerque Center
Sun 03:21:05 PM 34.6892 -109.9089 254° West 372 428 34,000  Level Albuquerque Center
Sun 03:22:06 PM 34.6419 -110.0347 246° West 367 422 34,000  Level Albuquerque Center
Sun 03:23:10 PM 34.6025 -110.1492 247° West 379 436 34,000  Level Albuquerque Center
Sun 03:24:11 PM 34.5633 -110.2600 247° West 376 433 34,000 -50 Level Albuquerque Center
Sun 03:25:11 PM 34.5114 -110.3811 243° Southwest 364 419 33,900 -528 Descending Albuquerque Center
Sun 03:26:16 PM 34.4764 -110.4886 248° West 379 436 32,900 -1,667 Descending Albuquerque Center
Sun 03:27:17 PM 34.4244 -110.6247 245° Southwest 376 433 30,400 -2,331 Descending Albuquerque Center
Sun 03:28:17 PM 34.3806 -110.7369 245° Southwest 368 423 28,200 -2,081 Descending Albuquerque Center
Sun 03:29:21 PM 34.3281 -110.8364 237° Southwest 357 411 26,100 -1,920 Descending Albuquerque Center
Sun 03:30:22 PM 34.2625 -110.9150 225° Southwest 336 387 24,200 -1,869 Descending Albuquerque Center
Sun 03:31:23 PM 34.2033 -110.9903 226° Southwest 318 366 22,300 -1,762 Descending Albuquerque Center
Sun 03:32:28 PM 34.1467 -111.0647 227° Southwest 307 353 20,500 -1,776 Descending Albuquerque Center
Sun 03:33:28 PM 34.0867 -111.1411 227° Southwest 308 354 18,600 -2,132 Descending Albuquerque Center
Sun 03:34:29 PM 34.0172 -111.2308 227° Southwest 308 354 16,200 -1,968 Descending Albuquerque Center
Sun 03:35:33 PM 33.9639 -111.3006 227° Southwest 289 333 14,500 -1,632 Descending Albuquerque Center
Sun 03:36:34 PM 33.9111 -111.3667 226° Southwest 276 318 12,800 -1,339 Descending Albuquerque Center
Sun 03:37:34 PM 33.8594 -111.4267 224° Southwest 259 298 11,800 -871 Descending Albuquerque Center
Sun 03:38:38 PM 33.8031 -111.4722 214° Southwest 245 282 11,000 -629 Descending Albuquerque Center
Sun 03:39:38 PM 33.7506 -111.5186 216° Southwest 235 270 10,500 -1,024 Descending Albuquerque Center
Sun 03:40:41 PM 33.6939 -111.5606 212° Southwest 237 273 8,900 -1,258 Descending Albuquerque Center
Sun 03:41:42 PM 33.6364 -111.6022 211° Southwest 240 276 7,900 -1,152 Descending Albuquerque Center
Sun 03:42:46 PM 33.5778 -111.6453 211° Southwest 206 237 6,500 -919 Descending Albuquerque Center
Sun 03:43:46 PM 33.5247 -111.6836 211° Southwest 219 252 6,000 -836 Descending Albuquerque Center
Sun 03:44:48 PM 33.4853 -111.7350 227° Southwest 218 251 4,800 -976 Descending Albuquerque Center
Sun 03:45:49 PM 33.4561 -111.7986 241° Southwest 216 249 4,000 -768 Descending Albuquerque Center
Sun 03:46:53 PM 33.4419 -111.8614 255° West 198 228 3,200 -816 Descending Albuquerque Center
Sun 03:47:54 PM 33.4406 -111.9206 268° West 181 208 2,300 -787 Descending Albuquerque Center
Sun 03:48:55 PM 33.4414 -111.9672 271° West 146 168 1,600 -532 Descending Albuquerque Center
Sun 03:49:58 PM 33.4453 -112.0214 275° West 143 165 1,200 -381 Descending Albuquerque Center
Sun 03:51:00 PM 33.4343 -112.0116 90° East  Level Estimated

Login

Don't have an account? Register now (free) for customized features, flight alerts, and more!